This is the latest recevied weather packets stored in our database for station/object SP2WPY-13. If no packets are shown the sender has not sent any weather packets the latest 10 day(s).
| Time | Temp. | Humidity | Pressure | Rain* | Wind** | Luminosity | Snow |
|---|---|---|---|---|---|---|---|
| 1777886464 | 21.11° C | 60% | 1012.1 hPa | - | - | - | - |
| 1777886192 | 20.56° C | 61% | 1012.1 hPa | - | - | - | - |
| 1777885871 | 20° C | 61% | 1012.2 hPa | - | - | - | - |
| 1777885598 | 20° C | 61% | 1012.1 hPa | - | - | - | - |
| 1777885278 | 20° C | 60% | 1012.1 hPa | - | - | - | - |
| 1777885003 | 20° C | 60% | 1012.1 hPa | - | - | - | - |
| 1777884684 | 20.56° C | 58% | 1012.1 hPa | - | - | - | - |
| 1777884364 | 21.67° C | 55% | 1012 hPa | - | - | - | - |
| 1777884091 | 21.67° C | 57% | 1011.9 hPa | - | - | - | - |
| 1777883771 | 20.56° C | 59% | 1012 hPa | - | - | - | - |
| 1777883496 | 20° C | 62% | 1012 hPa | - | - | - | - |
| 1777883177 | 19.44° C | 62% | 1011.9 hPa | - | - | - | - |
| 1777882904 | 19.44° C | 62% | 1011.9 hPa | - | - | - | - |
| 1777882583 | 19.44° C | 62% | 1011.9 hPa | - | - | - | - |
| 1777882263 | 19.44° C | 62% | 1011.9 hPa | - | - | - | - |
| 1777881989 | 19.44° C | 62% | 1011.9 hPa | - | - | - | - |
| 1777881669 | 19.44° C | 62% | 1012 hPa | - | - | - | - |
| 1777881396 | 19.44° C | 61% | 1011.9 hPa | - | - | - | - |
| 1777881075 | 18.89° C | 62% | 1011.8 hPa | - | - | - | - |
| 1777880801 | 19.44° C | 61% | 1011.7 hPa | - | - | - | - |
| 1777880482 | 19.44° C | 62% | 1011.8 hPa | - | - | - | - |
| 1777880163 | 18.89° C | 63% | 1011.8 hPa | - | - | - | - |
| 1777879888 | 18.89° C | 63% | 1011.5 hPa | - | - | - | - |
| 1777879568 | 18.33° C | 64% | 1011.4 hPa | - | - | - | - |
| 1777879294 | 18.33° C | 64% | 1011.4 hPa | - | - | - | - |
* Rain since midnight (hover to see other rain measurements)
** Current wind speed in m/s (hover to see current wind gust speed)